PWSweather.com
Personal Weather Stations
Station Observations
IFREISTO2
Freiston, FreistonGB PE22 0QJ

FreistonFreistonGB PE22 0QJ

Lat: 52.964, Lon: 0.041

Elevation: 16

Station Type: Fine Offset

http://www.midlifedad.me.uk/weather

High Low Average
Temperature 80.6°F27.0°C 58.1°F14.5°C 64.8°F18.2°C
Dew Point 70.2°F21.2°C 56.1°F13.4°C 59.7°F15.4°C
Winds 6.7 mph 10.8 kmh Calm Calm 3.0 mph SW4.8 kmh SW
Wind Gusts 13.6 mph21.9 kmh -- 7.0 mph11.3 kmh
Humidity 96% 58% 84%
Pressure 30.08 in1018.6 mb 29.91 in1012.9 mb -
Precipitation 0.19 in4.8 mm - -
Hour Temp Dew Point Humidity Winds Wind Gusts Pressure Precip Precip Rate Daily Precip Total
12:00 AM 60.1°F15.6°C 58.3°F14.6°C 94% 6.6 mph NW10.6 kmh NW 9.8 mph15.8 kmh 29.91 in1012.9 mb 0.00 in0.0 mm 0.00 in0.0 mm 0.00 in0.0 mm
12:05 AM 60.1°F15.6°C 58.3°F14.6°C 94% 6.6 mph W10.6 kmh W 10.7 mph17.2 kmh 29.91 in1012.9 mb 0.00 in0.0 mm 0.00 in0.0 mm 0.00 in0.0 mm
12:10 AM 60.1°F15.6°C 58.3°F14.6°C 94% 6.1 mph SW9.8 kmh SW 10.7 mph17.2 kmh 29.91 in1012.9 mb 0.00 in0.0 mm 0.00 in0.0 mm 0.00 in0.0 mm
12:15 AM 59.9°F15.5°C 58.2°F14.6°C 94% 5.6 mph WSW9.0 kmh WSW 9.2 mph14.8 kmh 29.92 in1013.2 mb 0.00 in0.0 mm 0.00 in0.0 mm 0.00 in0.0 mm
12:20 AM 59.9°F15.5°C 58.2°F14.6°C 94% 5.1 mph WSW8.2 kmh WSW 8.3 mph13.4 kmh 29.92 in1013.2 mb 0.00 in0.0 mm 0.00 in0.0 mm 0.00 in0.0 mm
12:25 AM 59.7°F15.4°C 58.0°F14.4°C 94% 4.8 mph WSW7.7 kmh WSW 8.3 mph13.4 kmh 29.92 in1013.2 mb 0.00 in0.0 mm 0.00 in0.0 mm 0.00 in0.0 mm
12:30 AM 59.7°F15.4°C 58.0°F14.4°C 94% 4.9 mph WSW7.9 kmh WSW 7.6 mph12.2 kmh 29.92 in1013.2 mb 0.00 in0.0 mm 0.00 in0.0 mm 0.00 in0.0 mm
12:35 AM 59.7°F15.4°C 58.0°F14.4°C 94% 5.2 mph WSW8.4 kmh WSW 8.3 mph13.4 kmh 29.92 in1013.2 mb 0.00 in0.0 mm 0.00 in0.0 mm 0.00 in0.0 mm
12:40 AM 59.7°F15.4°C 58.0°F14.4°C 94% 5.0 mph W8.0 kmh W 8.3 mph13.4 kmh 29.92 in1013.2 mb 0.00 in0.0 mm 0.00 in0.0 mm 0.00 in0.0 mm
12:45 AM 59.7°F15.4°C 58.0°F14.4°C 94% 4.5 mph W7.2 kmh W 9.2 mph14.8 kmh 29.92 in1013.2 mb 0.00 in0.0 mm 0.00 in0.0 mm 0.00 in0.0 mm
12:50 AM 59.9°F15.5°C 58.2°F14.6°C 94% 5.0 mph WSW8.0 kmh WSW 9.2 mph14.8 kmh 29.92 in1013.2 mb 0.00 in0.0 mm 0.00 in0.0 mm 0.00 in0.0 mm
12:55 AM 59.9°F15.5°C 58.2°F14.6°C 94% 5.4 mph WSW8.7 kmh WSW 9.2 mph14.8 kmh 29.92 in1013.2 mb 0.00 in0.0 mm 0.00 in0.0 mm 0.00 in0.0 mm
01:00 AM 59.9°F15.5°C 58.2°F14.6°C 94% 5.6 mph WSW9.0 kmh WSW 9.2 mph14.8 kmh 29.92 in1013.2 mb 0.00 in0.0 mm 0.00 in0.0 mm 0.00 in0.0 mm
01:05 AM 59.9°F15.5°C 58.2°F14.6°C 94% 6.2 mph SW10.0 kmh SW 12.1 mph19.5 kmh 29.92 in1013.2 mb 0.00 in0.0 mm 0.00 in0.0 mm 0.00 in0.0 mm
01:10 AM 59.9°F15.5°C 58.5°F14.7°C 95% 6.7 mph WSW10.8 kmh WSW 12.1 mph19.5 kmh 29.93 in1013.5 mb 0.00 in0.0 mm 0.00 in0.0 mm 0.00 in0.0 mm
01:15 AM 60.1°F15.6°C 58.6°F14.8°C 95% 6.7 mph W10.8 kmh W 10.7 mph17.2 kmh 29.92 in1013.2 mb 0.00 in0.0 mm 0.00 in0.0 mm 0.00 in0.0 mm
01:20 AM 60.1°F15.6°C 58.6°F14.8°C 95% 5.9 mph W9.5 kmh W 9.8 mph15.8 kmh 29.92 in1013.2 mb 0.00 in0.0 mm 0.00 in0.0 mm 0.00 in0.0 mm
01:25 AM 59.9°F15.5°C 58.2°F14.6°C 94% 5.4 mph WSW8.7 kmh WSW 9.8 mph15.8 kmh 29.93 in1013.5 mb 0.00 in0.0 mm 0.00 in0.0 mm 0.00 in0.0 mm
01:30 AM 59.9°F15.5°C 58.2°F14.6°C 94% 5.4 mph WSW8.7 kmh WSW 9.2 mph14.8 kmh 29.93 in1013.5 mb 0.00 in0.0 mm 0.00 in0.0 mm 0.00 in0.0 mm
01:35 AM 59.9°F15.5°C 58.2°F14.6°C 94% 4.9 mph W7.9 kmh W 9.2 mph14.8 kmh 29.93 in1013.5 mb 0.00 in0.0 mm 0.00 in0.0 mm 0.00 in0.0 mm
01:40 AM 59.9°F15.5°C 58.2°F14.6°C 94% 4.5 mph WSW7.2 kmh WSW 9.2 mph14.8 kmh 29.93 in1013.5 mb 0.00 in0.0 mm 0.00 in0.0 mm 0.00 in0.0 mm
01:45 AM 59.9°F15.5°C 58.2°F14.6°C 94% 4.6 mph SW7.4 kmh SW 9.2 mph14.8 kmh 29.93 in1013.5 mb 0.00 in0.0 mm 0.00 in0.0 mm 0.00 in0.0 mm
01:50 AM 59.9°F15.5°C 58.2°F14.6°C 94% 4.6 mph SW7.4 kmh SW 7.6 mph12.2 kmh 29.93 in1013.5 mb 0.00 in0.0 mm 0.00 in0.0 mm 0.00 in0.0 mm
01:55 AM 59.7°F15.4°C 58.0°F14.4°C 94% 4.7 mph WSW7.6 kmh WSW 7.6 mph12.2 kmh 29.93 in1013.5 mb 0.00 in0.0 mm 0.00 in0.0 mm 0.00 in0.0 mm
02:00 AM 59.7°F15.4°C 58.0°F14.4°C 94% 4.7 mph WSW7.6 kmh WSW 9.2 mph14.8 kmh 29.93 in1013.5 mb 0.00 in0.0 mm 0.00 in0.0 mm 0.00 in0.0 mm
02:05 AM 59.7°F15.4°C 58.0°F14.4°C 94% 4.6 mph WSW7.4 kmh WSW 9.2 mph14.8 kmh 29.93 in1013.5 mb 0.00 in0.0 mm 0.00 in0.0 mm 0.00 in0.0 mm
02:10 AM 59.7°F15.4°C 58.0°F14.4°C 94% 4.8 mph WSW7.7 kmh WSW 9.8 mph15.8 kmh 29.93 in1013.5 mb 0.00 in0.0 mm 0.00 in0.0 mm 0.00 in0.0 mm
02:15 AM 59.5°F15.3°C 57.8°F14.3°C 94% 5.2 mph W8.4 kmh W 9.8 mph15.8 kmh 29.93 in1013.5 mb 0.00 in0.0 mm 0.00 in0.0 mm 0.00 in0.0 mm
02:20 AM 59.5°F15.3°C 57.8°F14.3°C 94% 4.7 mph W7.6 kmh W 9.2 mph14.8 kmh 29.93 in1013.5 mb 0.00 in0.0 mm 0.00 in0.0 mm 0.00 in0.0 mm
02:25 AM 59.4°F15.2°C 57.6°F14.2°C 94% 4.1 mph W6.6 kmh W 8.3 mph13.4 kmh 29.93 in1013.5 mb 0.00 in0.0 mm 0.00 in0.0 mm 0.00 in0.0 mm
02:30 AM 59.2°F15.1°C 57.5°F14.2°C 94% 3.5 mph WSW5.6 kmh WSW 6.0 mph9.7 kmh 29.93 in1013.5 mb 0.00 in0.0 mm 0.00 in0.0 mm 0.00 in0.0 mm
02:35 AM 59.2°F15.1°C 57.5°F14.2°C 94% 3.0 mph WSW4.8 kmh WSW 6.0 mph9.7 kmh 29.93 in1013.5 mb 0.00 in0.0 mm 0.00 in0.0 mm 0.00 in0.0 mm
02:40 AM 59.0°F15.0°C 57.3°F14.1°C 94% 3.0 mph WSW4.8 kmh WSW 5.4 mph8.7 kmh 29.93 in1013.5 mb 0.00 in0.0 mm 0.00 in0.0 mm 0.00 in0.0 mm
02:45 AM 59.0°F15.0°C 57.3°F14.1°C 94% 3.5 mph WSW5.6 kmh WSW 6.0 mph9.7 kmh 29.93 in1013.5 mb 0.00 in0.0 mm 0.00 in0.0 mm 0.00 in0.0 mm
02:50 AM 58.8°F14.9°C 57.4°F14.1°C 95% 3.4 mph WSW5.5 kmh WSW 6.0 mph9.7 kmh 29.93 in1013.5 mb 0.00 in0.0 mm 0.00 in0.0 mm 0.00 in0.0 mm
02:55 AM 58.6°F14.8°C 57.2°F14.0°C 95% 2.8 mph WSW4.5 kmh WSW 6.0 mph9.7 kmh 29.93 in1013.5 mb 0.00 in0.0 mm 0.00 in0.0 mm 0.00 in0.0 mm
03:00 AM 58.5°F14.7°C 57.0°F13.9°C 95% 2.3 mph WSW3.7 kmh WSW 4.5 mph7.2 kmh 29.93 in1013.5 mb 0.00 in0.0 mm 0.00 in0.0 mm 0.00 in0.0 mm
03:05 AM 58.3°F14.6°C 56.9°F13.8°C 95% 2.6 mph WSW4.2 kmh WSW 4.5 mph7.2 kmh 29.93 in1013.5 mb 0.00 in0.0 mm 0.00 in0.0 mm 0.00 in0.0 mm
03:10 AM 58.3°F14.6°C 56.9°F13.8°C 95% 2.8 mph W4.5 kmh W 4.5 mph7.2 kmh 29.94 in1013.9 mb 0.00 in0.0 mm 0.00 in0.0 mm 0.00 in0.0 mm
03:15 AM 58.3°F14.6°C 56.9°F13.8°C 95% 2.7 mph WSW4.3 kmh WSW 6.0 mph9.7 kmh 29.94 in1013.9 mb 0.00 in0.0 mm 0.00 in0.0 mm 0.00 in0.0 mm
03:20 AM 58.5°F14.7°C 57.0°F13.9°C 95% 2.8 mph WSW4.5 kmh WSW 6.0 mph9.7 kmh 29.94 in1013.9 mb 0.00 in0.0 mm 0.00 in0.0 mm 0.00 in0.0 mm
03:25 AM 58.6°F14.8°C 57.2°F14.0°C 95% 3.1 mph W5.0 kmh W 5.4 mph8.7 kmh 29.94 in1013.9 mb 0.00 in0.0 mm 0.00 in0.0 mm 0.00 in0.0 mm
03:30 AM 58.6°F14.8°C 57.2°F14.0°C 95% 3.3 mph WSW5.3 kmh WSW 6.0 mph9.7 kmh 29.94 in1013.9 mb 0.00 in0.0 mm 0.00 in0.0 mm 0.00 in0.0 mm
03:35 AM 58.6°F14.8°C 57.5°F14.2°C 96% 3.5 mph WSW5.6 kmh WSW 6.9 mph11.1 kmh 29.94 in1013.9 mb 0.00 in0.0 mm 0.00 in0.0 mm 0.00 in0.0 mm
03:40 AM 58.5°F14.7°C 57.3°F14.1°C 96% 3.7 mph WSW6.0 kmh WSW 6.9 mph11.1 kmh 29.94 in1013.9 mb 0.00 in0.0 mm 0.00 in0.0 mm 0.00 in0.0 mm
03:45 AM 58.3°F14.6°C 56.9°F13.8°C 95% 3.4 mph SW5.5 kmh SW 6.9 mph11.1 kmh 29.94 in1013.9 mb 0.00 in0.0 mm 0.00 in0.0 mm 0.00 in0.0 mm
03:50 AM 58.1°F14.5°C 56.7°F13.7°C 95% 3.1 mph SW5.0 kmh SW 6.0 mph9.7 kmh 29.94 in1013.9 mb 0.00 in0.0 mm 0.00 in0.0 mm 0.00 in0.0 mm
03:55 AM 58.1°F14.5°C 57.0°F13.9°C 96% 3.6 mph WSW5.8 kmh WSW 6.9 mph11.1 kmh 29.95 in1014.2 mb 0.00 in0.0 mm 0.00 in0.0 mm 0.00 in0.0 mm
04:00 AM 58.1°F14.5°C 57.0°F13.9°C 96% 3.8 mph WSW6.1 kmh WSW 6.9 mph11.1 kmh 29.95 in1014.2 mb 0.00 in0.0 mm 0.00 in0.0 mm 0.00 in0.0 mm
04:05 AM 58.1°F14.5°C 57.0°F13.9°C 96% 3.2 mph WSW5.1 kmh WSW 6.9 mph11.1 kmh 29.95 in1014.2 mb 0.00 in0.0 mm 0.00 in0.0 mm 0.00 in0.0 mm
04:10 AM 58.1°F14.5°C 57.0°F13.9°C 96% 2.7 mph WSW4.3 kmh WSW 4.5 mph7.2 kmh 29.95 in1014.2 mb 0.00 in0.0 mm 0.00 in0.0 mm 0.00 in0.0 mm
04:15 AM 58.1°F14.5°C 57.0°F13.9°C 96% 3.0 mph WSW4.8 kmh WSW 5.4 mph8.7 kmh 29.95 in1014.2 mb 0.00 in0.0 mm 0.00 in0.0 mm 0.00 in0.0 mm
04:20 AM 58.1°F14.5°C 57.0°F13.9°C 96% 3.6 mph WSW5.8 kmh WSW 6.0 mph9.7 kmh 29.95 in1014.2 mb 0.00 in0.0 mm 0.00 in0.0 mm 0.00 in0.0 mm
04:25 AM 58.1°F14.5°C 57.0°F13.9°C 96% 3.7 mph W6.0 kmh W 6.0 mph9.7 kmh 29.95 in1014.2 mb 0.00 in0.0 mm 0.00 in0.0 mm 0.00 in0.0 mm
04:30 AM 58.3°F14.6°C 57.1°F13.9°C 96% 3.5 mph WSW5.6 kmh WSW 6.0 mph9.7 kmh 29.95 in1014.2 mb 0.00 in0.0 mm 0.00 in0.0 mm 0.00 in0.0 mm
04:35 AM 58.3°F14.6°C 57.1°F13.9°C 96% 3.5 mph WSW5.6 kmh WSW 6.0 mph9.7 kmh 29.96 in1014.6 mb 0.00 in0.0 mm 0.00 in0.0 mm 0.00 in0.0 mm
04:40 AM 58.3°F14.6°C 57.1°F13.9°C 96% 3.7 mph WSW6.0 kmh WSW 6.0 mph9.7 kmh 29.96 in1014.6 mb 0.00 in0.0 mm 0.00 in0.0 mm 0.00 in0.0 mm
04:45 AM 58.3°F14.6°C 57.1°F13.9°C 96% 3.5 mph W5.6 kmh W 6.9 mph11.1 kmh 29.96 in1014.6 mb 0.00 in0.0 mm 0.00 in0.0 mm 0.00 in0.0 mm
04:50 AM 58.3°F14.6°C 57.1°F13.9°C 96% 3.3 mph WSW5.3 kmh WSW 6.9 mph11.1 kmh 29.96 in1014.6 mb 0.00 in0.0 mm 0.00 in0.0 mm 0.00 in0.0 mm
04:55 AM 58.3°F14.6°C 57.1°F13.9°C 96% 3.4 mph WSW5.5 kmh WSW 5.4 mph8.7 kmh 29.96 in1014.6 mb 0.00 in0.0 mm 0.00 in0.0 mm 0.00 in0.0 mm
05:00 AM 58.3°F14.6°C 57.1°F13.9°C 96% 3.1 mph WSW5.0 kmh WSW 5.4 mph8.7 kmh 29.96 in1014.6 mb 0.00 in0.0 mm 0.00 in0.0 mm 0.00 in0.0 mm
05:05 AM 58.3°F14.6°C 57.1°F13.9°C 96% 2.9 mph SW4.7 kmh SW 5.4 mph8.7 kmh 29.96 in1014.6 mb 0.00 in0.0 mm 0.00 in0.0 mm 0.00 in0.0 mm
05:10 AM 58.1°F14.5°C 57.0°F13.9°C 96% 3.2 mph WSW5.1 kmh WSW 5.4 mph8.7 kmh 29.96 in1014.6 mb 0.00 in0.0 mm 0.00 in0.0 mm 0.00 in0.0 mm
05:15 AM 58.3°F14.6°C 57.1°F13.9°C 96% 3.4 mph WSW5.5 kmh WSW 6.0 mph9.7 kmh 29.97 in1014.9 mb 0.00 in0.0 mm 0.00 in0.0 mm 0.00 in0.0 mm
05:20 AM 58.3°F14.6°C 57.1°F13.9°C 96% 3.4 mph WSW5.5 kmh WSW 6.0 mph9.7 kmh 29.96 in1014.6 mb 0.00 in0.0 mm 0.00 in0.0 mm 0.00 in0.0 mm
05:25 AM 58.5°F14.7°C 57.3°F14.1°C 96% 3.6 mph WSW5.8 kmh WSW 6.0 mph9.7 kmh 29.97 in1014.9 mb 0.00 in0.0 mm 0.00 in0.0 mm 0.00 in0.0 mm
05:30 AM 58.6°F14.8°C 57.5°F14.2°C 96% 3.6 mph W5.8 kmh W 6.0 mph9.7 kmh 29.97 in1014.9 mb 0.00 in0.0 mm 0.00 in0.0 mm 0.00 in0.0 mm
05:35 AM 59.2°F15.1°C 58.0°F14.4°C 96% 3.3 mph W5.3 kmh W 6.0 mph9.7 kmh 29.97 in1014.9 mb 0.00 in0.0 mm 0.00 in0.0 mm 0.00 in0.0 mm
05:40 AM 59.5°F15.3°C 58.4°F14.7°C 96% 3.1 mph WSW5.0 kmh WSW 5.4 mph8.7 kmh 29.97 in1014.9 mb 0.00 in0.0 mm 0.00 in0.0 mm 0.00 in0.0 mm
05:45 AM 59.9°F15.5°C 58.8°F14.9°C 96% 3.3 mph WSW5.3 kmh WSW 6.0 mph9.7 kmh 29.97 in1014.9 mb 0.00 in0.0 mm 0.00 in0.0 mm 0.00 in0.0 mm
05:50 AM 60.1°F15.6°C 58.9°F14.9°C 96% 3.5 mph WSW5.6 kmh WSW 6.0 mph9.7 kmh 29.96 in1014.6 mb 0.00 in0.0 mm 0.00 in0.0 mm 0.00 in0.0 mm
05:55 AM 60.1°F15.6°C 58.9°F14.9°C 96% 3.2 mph SW5.1 kmh SW 6.9 mph11.1 kmh 29.97 in1014.9 mb 0.00 in0.0 mm 0.00 in0.0 mm 0.00 in0.0 mm
06:00 AM 60.1°F15.6°C 58.9°F14.9°C 96% 3.3 mph WSW5.3 kmh WSW 8.3 mph13.4 kmh 29.97 in1014.9 mb 0.00 in0.0 mm 0.00 in0.0 mm 0.00 in0.0 mm
06:05 AM 60.1°F15.6°C 58.9°F14.9°C 96% 3.5 mph W5.6 kmh W 8.3 mph13.4 kmh 29.97 in1014.9 mb 0.00 in0.0 mm 0.00 in0.0 mm 0.00 in0.0 mm
06:10 AM 60.1°F15.6°C 58.9°F14.9°C 96% 3.5 mph W5.6 kmh W 7.6 mph12.2 kmh 29.98 in1015.2 mb 0.00 in0.0 mm 0.00 in0.0 mm 0.00 in0.0 mm
06:15 AM 60.4°F15.8°C 59.3°F15.2°C 96% 3.8 mph WSW6.1 kmh WSW 9.2 mph14.8 kmh 29.97 in1014.9 mb 0.00 in0.0 mm 0.00 in0.0 mm 0.00 in0.0 mm
06:20 AM 60.6°F15.9°C 59.5°F15.3°C 96% 3.8 mph WSW6.1 kmh WSW 9.2 mph14.8 kmh 29.97 in1014.9 mb 0.00 in0.0 mm 0.00 in0.0 mm 0.00 in0.0 mm
06:25 AM 61.0°F16.1°C 59.5°F15.3°C 95% 3.6 mph WSW5.8 kmh WSW 7.6 mph12.2 kmh 29.98 in1015.2 mb 0.00 in0.0 mm 0.00 in0.0 mm 0.00 in0.0 mm
06:30 AM 61.3°F16.3°C 59.9°F15.5°C 95% 3.6 mph WSW5.8 kmh WSW 9.2 mph14.8 kmh 29.98 in1015.2 mb 0.00 in0.0 mm 0.00 in0.0 mm 0.00 in0.0 mm
06:35 AM 61.5°F16.4°C 59.8°F15.4°C 94% 4.0 mph W6.4 kmh W 9.2 mph14.8 kmh 29.98 in1015.2 mb 0.00 in0.0 mm 0.00 in0.0 mm 0.00 in0.0 mm
06:40 AM 61.9°F16.6°C 60.1°F15.6°C 94% 4.3 mph W6.9 kmh W 8.3 mph13.4 kmh 29.98 in1015.2 mb 0.00 in0.0 mm 0.00 in0.0 mm 0.00 in0.0 mm
06:45 AM 61.9°F16.6°C 60.1°F15.6°C 94% 4.2 mph WSW6.8 kmh WSW 7.6 mph12.2 kmh 29.98 in1015.2 mb 0.00 in0.0 mm 0.00 in0.0 mm 0.00 in0.0 mm
06:50 AM 62.1°F16.7°C 60.0°F15.6°C 93% 4.9 mph WSW7.9 kmh WSW 9.8 mph15.8 kmh 29.98 in1015.2 mb 0.00 in0.0 mm 0.00 in0.0 mm 0.00 in0.0 mm
06:55 AM 61.9°F16.6°C 59.5°F15.3°C 92% 5.7 mph SW9.2 kmh SW 10.7 mph17.2 kmh 29.98 in1015.2 mb 0.00 in0.0 mm 0.00 in0.0 mm 0.00 in0.0 mm
07:00 AM 61.7°F16.5°C 59.4°F15.2°C 92% 5.0 mph SW8.0 kmh SW 10.7 mph17.2 kmh 29.98 in1015.2 mb 0.00 in0.0 mm 0.00 in0.0 mm 0.00 in0.0 mm
07:05 AM 61.7°F16.5°C 59.0°F15.0°C 91% 3.6 mph WSW5.8 kmh WSW 6.9 mph11.1 kmh 29.98 in1015.2 mb 0.00 in0.0 mm 0.00 in0.0 mm 0.00 in0.0 mm
07:10 AM 62.1°F16.7°C 59.4°F15.2°C 91% 3.4 mph WSW5.5 kmh WSW 6.9 mph11.1 kmh 29.98 in1015.2 mb 0.00 in0.0 mm 0.00 in0.0 mm 0.00 in0.0 mm
07:15 AM 62.2°F16.8°C 59.6°F15.3°C 91% 3.9 mph SW6.3 kmh SW 9.8 mph15.8 kmh 29.98 in1015.2 mb 0.00 in0.0 mm 0.00 in0.0 mm 0.00 in0.0 mm
07:20 AM 62.4°F16.9°C 59.8°F15.4°C 91% 3.5 mph SW5.6 kmh SW 9.8 mph15.8 kmh 29.98 in1015.2 mb 0.00 in0.0 mm 0.00 in0.0 mm 0.00 in0.0 mm
07:25 AM 63.0°F17.2°C 60.0°F15.6°C 90% 3.6 mph SW5.8 kmh SW 9.2 mph14.8 kmh 29.99 in1015.6 mb 0.00 in0.0 mm 0.00 in0.0 mm 0.00 in0.0 mm
07:30 AM 63.1°F17.3°C 59.8°F15.4°C 89% 4.1 mph W6.6 kmh W 9.2 mph14.8 kmh 29.99 in1015.6 mb 0.00 in0.0 mm 0.00 in0.0 mm 0.00 in0.0 mm
07:35 AM 63.1°F17.3°C 59.5°F15.3°C 88% 3.7 mph WSW6.0 kmh WSW 9.2 mph14.8 kmh 29.99 in1015.6 mb 0.00 in0.0 mm 0.00 in0.0 mm 0.00 in0.0 mm
07:40 AM 63.5°F17.5°C 59.9°F15.5°C 88% 3.9 mph SW6.3 kmh SW 9.8 mph15.8 kmh 29.99 in1015.6 mb 0.00 in0.0 mm 0.00 in0.0 mm 0.00 in0.0 mm
07:45 AM 64.0°F17.8°C 60.4°F15.8°C 88% 3.9 mph WSW6.3 kmh WSW 9.8 mph15.8 kmh 29.99 in1015.6 mb 0.00 in0.0 mm 0.00 in0.0 mm 0.00 in0.0 mm
07:50 AM 65.3°F18.5°C 61.7°F16.5°C 88% 3.4 mph WSW5.5 kmh WSW 7.6 mph12.2 kmh 29.99 in1015.6 mb 0.00 in0.0 mm 0.00 in0.0 mm 0.00 in0.0 mm
07:55 AM 65.7°F18.7°C 62.0°F16.7°C 88% 3.1 mph W5.0 kmh W 7.6 mph12.2 kmh 29.99 in1015.6 mb 0.00 in0.0 mm 0.00 in0.0 mm 0.00 in0.0 mm
08:00 AM 65.7°F18.7°C 61.4°F16.3°C 86% 3.5 mph NW5.6 kmh NW 9.2 mph14.8 kmh 29.99 in1015.6 mb 0.00 in0.0 mm 0.00 in0.0 mm 0.00 in0.0 mm
08:05 AM 65.8°F18.8°C 61.2°F16.2°C 85% 3.5 mph NNW5.6 kmh NNW 9.2 mph14.8 kmh 29.99 in1015.6 mb 0.00 in0.0 mm 0.00 in0.0 mm 0.00 in0.0 mm
08:10 AM 66.0°F18.9°C 61.4°F16.3°C 85% 2.8 mph W4.5 kmh W 7.6 mph12.2 kmh 29.99 in1015.6 mb 0.00 in0.0 mm 0.00 in0.0 mm 0.00 in0.0 mm
08:15 AM 66.0°F18.9°C 61.0°F16.1°C 84% 2.8 mph SW4.5 kmh SW 7.6 mph12.2 kmh 29.99 in1015.6 mb 0.00 in0.0 mm 0.00 in0.0 mm 0.00 in0.0 mm
08:20 AM 66.6°F19.2°C 61.2°F16.2°C 83% 3.3 mph W5.3 kmh W 9.2 mph14.8 kmh 29.99 in1015.6 mb 0.00 in0.0 mm 0.00 in0.0 mm 0.00 in0.0 mm
08:25 AM 66.9°F19.4°C 61.2°F16.2°C 82% 3.6 mph W5.8 kmh W 9.2 mph14.8 kmh 29.99 in1015.6 mb 0.00 in0.0 mm 0.00 in0.0 mm 0.00 in0.0 mm
08:30 AM 68.2°F20.1°C 61.8°F16.6°C 80% 3.1 mph WSW5.0 kmh WSW 8.3 mph13.4 kmh 29.99 in1015.6 mb 0.00 in0.0 mm 0.00 in0.0 mm 0.00 in0.0 mm
08:35 AM 68.9°F20.5°C 61.4°F16.3°C 77% 2.8 mph WSW4.5 kmh WSW 7.6 mph12.2 kmh 30.00 in1015.9 mb 0.00 in0.0 mm 0.00 in0.0 mm 0.00 in0.0 mm
08:40 AM 69.1°F20.6°C 60.8°F16.0°C 75% 2.9 mph WSW4.7 kmh WSW 8.3 mph13.4 kmh 30.00 in1015.9 mb 0.00 in0.0 mm 0.00 in0.0 mm 0.00 in0.0 mm
08:45 AM 69.1°F20.6°C 60.8°F16.0°C 75% 2.4 mph W3.9 kmh W 8.3 mph13.4 kmh 30.00 in1015.9 mb 0.00 in0.0 mm 0.00 in0.0 mm 0.00 in0.0 mm
08:50 AM 68.7°F20.4°C 60.5°F15.8°C 75% 2.3 mph NW3.7 kmh NW 6.9 mph11.1 kmh 30.00 in1015.9 mb 0.00 in0.0 mm 0.00 in0.0 mm 0.00 in0.0 mm
08:55 AM 69.1°F20.6°C 60.8°F16.0°C 75% 2.9 mph SSE4.7 kmh SSE 6.0 mph9.7 kmh 29.99 in1015.6 mb 0.00 in0.0 mm 0.00 in0.0 mm 0.00 in0.0 mm
09:00 AM 69.8°F21.0°C 60.8°F16.0°C 73% 2.7 mph E4.3 kmh E 6.9 mph11.1 kmh 29.99 in1015.6 mb 0.00 in0.0 mm 0.00 in0.0 mm 0.00 in0.0 mm
09:05 AM 69.8°F21.0°C 60.4°F15.8°C 72% 2.3 mph NNE3.7 kmh NNE 6.9 mph11.1 kmh 29.99 in1015.6 mb 0.00 in0.0 mm 0.00 in0.0 mm 0.00 in0.0 mm
09:10 AM 69.4°F20.8°C 60.4°F15.8°C 73% 2.8 mph W4.5 kmh W 8.3 mph13.4 kmh 29.99 in1015.6 mb 0.00 in0.0 mm 0.00 in0.0 mm 0.00 in0.0 mm
09:15 AM 69.4°F20.8°C 60.4°F15.8°C 73% 2.7 mph WNW4.3 kmh WNW 8.3 mph13.4 kmh 30.00 in1015.9 mb 0.00 in0.0 mm 0.00 in0.0 mm 0.00 in0.0 mm
09:20 AM 70.3°F21.3°C 61.3°F16.3°C 73% 2.7 mph WNW4.3 kmh WNW 7.6 mph12.2 kmh 29.99 in1015.6 mb 0.00 in0.0 mm 0.00 in0.0 mm 0.00 in0.0 mm
09:25 AM 70.3°F21.3°C 60.5°F15.8°C 71% 3.7 mph WSW6.0 kmh WSW 11.4 mph18.3 kmh 30.00 in1015.9 mb 0.00 in0.0 mm 0.00 in0.0 mm 0.00 in0.0 mm
09:30 AM 70.7°F21.5°C 60.8°F16.0°C 71% 3.4 mph W5.5 kmh W 11.4 mph18.3 kmh 30.00 in1015.9 mb 0.00 in0.0 mm 0.00 in0.0 mm 0.00 in0.0 mm
09:35 AM 70.7°F21.5°C 60.0°F15.6°C 69% 2.8 mph NW4.5 kmh NW 8.3 mph13.4 kmh 30.00 in1015.9 mb 0.00 in0.0 mm 0.00 in0.0 mm 0.00 in0.0 mm
09:40 AM 71.1°F21.7°C 60.4°F15.8°C 69% 3.1 mph NW5.0 kmh NW 9.2 mph14.8 kmh 30.00 in1015.9 mb 0.00 in0.0 mm 0.00 in0.0 mm 0.00 in0.0 mm
09:45 AM 71.1°F21.7°C 60.4°F15.8°C 69% 2.6 mph NW4.2 kmh NW 9.2 mph14.8 kmh 30.00 in1015.9 mb 0.00 in0.0 mm 0.00 in0.0 mm 0.00 in0.0 mm
09:50 AM 72.1°F22.3°C 60.6°F15.9°C 67% 2.6 mph NW4.2 kmh NW 8.3 mph13.4 kmh 30.00 in1015.9 mb 0.00 in0.0 mm 0.00 in0.0 mm 0.00 in0.0 mm
09:55 AM 72.5°F22.5°C 60.1°F15.6°C 65% 3.2 mph NW5.1 kmh NW 8.3 mph13.4 kmh 30.00 in1015.9 mb 0.00 in0.0 mm 0.00 in0.0 mm 0.00 in0.0 mm
10:00 AM 71.8°F22.1°C 58.9°F14.9°C 64% 3.2 mph NW5.1 kmh NW 8.3 mph13.4 kmh 30.00 in1015.9 mb 0.00 in0.0 mm 0.00 in0.0 mm 0.00 in0.0 mm
10:05 AM 71.4°F21.9°C 59.9°F15.5°C 67% 3.0 mph W4.8 kmh W 7.6 mph12.2 kmh 30.00 in1015.9 mb 0.00 in0.0 mm 0.00 in0.0 mm 0.00 in0.0 mm
10:10 AM 72.1°F22.3°C 60.2°F15.7°C 66% 3.0 mph WNW4.8 kmh WNW 7.6 mph12.2 kmh 30.00 in1015.9 mb 0.00 in0.0 mm 0.00 in0.0 mm 0.00 in0.0 mm
10:15 AM 72.7°F22.6°C 60.2°F15.7°C 65% 3.3 mph NW5.3 kmh NW 8.3 mph13.4 kmh 30.00 in1015.9 mb 0.00 in0.0 mm 0.00 in0.0 mm 0.00 in0.0 mm
10:20 AM 72.9°F22.7°C 60.4°F15.8°C 65% 2.8 mph WNW4.5 kmh WNW 8.3 mph13.4 kmh 30.00 in1015.9 mb 0.00 in0.0 mm 0.00 in0.0 mm 0.00 in0.0 mm
10:25 AM 73.4°F23.0°C 60.9°F16.1°C 65% 2.1 mph NW3.4 kmh NW 6.9 mph11.1 kmh 30.00 in1015.9 mb 0.00 in0.0 mm 0.00 in0.0 mm 0.00 in0.0 mm
10:30 AM 72.7°F22.6°C 59.8°F15.4°C 64% 1.8 mph NNW2.9 kmh NNW 6.0 mph9.7 kmh 30.00 in1015.9 mb 0.00 in0.0 mm 0.00 in0.0 mm 0.00 in0.0 mm
10:35 AM 73.9°F23.3°C 61.9°F16.6°C 66% 2.4 mph N3.9 kmh N 7.6 mph12.2 kmh 29.99 in1015.6 mb 0.00 in0.0 mm 0.00 in0.0 mm 0.00 in0.0 mm
10:40 AM 76.1°F24.5°C 62.6°F17.0°C 63% 2.6 mph NW4.2 kmh NW 7.6 mph12.2 kmh 29.99 in1015.6 mb 0.00 in0.0 mm 0.00 in0.0 mm 0.00 in0.0 mm
10:45 AM 74.3°F23.5°C 59.5°F15.3°C 60% 2.4 mph WSW3.9 kmh WSW 6.9 mph11.1 kmh 29.99 in1015.6 mb 0.00 in0.0 mm 0.00 in0.0 mm 0.00 in0.0 mm
10:50 AM 72.0°F22.2°C 58.7°F14.8°C 63% 3.3 mph WSW5.3 kmh WSW 9.2 mph14.8 kmh 30.00 in1015.9 mb 0.00 in0.0 mm 0.00 in0.0 mm 0.00 in0.0 mm
10:55 AM 70.9°F21.6°C 59.4°F15.2°C 67% 4.5 mph SW7.2 kmh SW 9.8 mph15.8 kmh 30.00 in1015.9 mb 0.00 in0.0 mm 0.00 in0.0 mm 0.00 in0.0 mm
11:00 AM 71.6°F22.0°C 60.1°F15.6°C 67% 4.5 mph SW7.2 kmh SW 9.8 mph15.8 kmh 30.00 in1015.9 mb 0.00 in0.0 mm 0.00 in0.0 mm 0.00 in0.0 mm
11:05 AM 72.1°F22.3°C 60.2°F15.7°C 66% 3.8 mph WSW6.1 kmh WSW 9.2 mph14.8 kmh 30.00 in1015.9 mb 0.00 in0.0 mm 0.00 in0.0 mm 0.00 in0.0 mm
11:10 AM 73.6°F23.1°C 60.6°F15.9°C 64% 3.6 mph WNW5.8 kmh WNW 8.3 mph13.4 kmh 30.00 in1015.9 mb 0.00 in0.0 mm 0.00 in0.0 mm 0.00 in0.0 mm
11:15 AM 74.1°F23.4°C 60.7°F15.9°C 63% 2.8 mph NNW4.5 kmh NNW 8.3 mph13.4 kmh 30.00 in1015.9 mb 0.00 in0.0 mm 0.00 in0.0 mm 0.00 in0.0 mm
11:20 AM 74.1°F23.4°C 60.7°F15.9°C 63% 2.4 mph N3.9 kmh N 8.3 mph13.4 kmh 30.00 in1015.9 mb 0.00 in0.0 mm 0.00 in0.0 mm 0.00 in0.0 mm
11:25 AM 75.7°F24.3°C 62.2°F16.8°C 63% 2.9 mph N4.7 kmh N 8.3 mph13.4 kmh 30.00 in1015.9 mb 0.00 in0.0 mm 0.00 in0.0 mm 0.00 in0.0 mm
11:30 AM 75.0°F23.9°C 60.7°F15.9°C 61% 3.4 mph NNW5.5 kmh NNW 8.3 mph13.4 kmh 30.00 in1015.9 mb 0.00 in0.0 mm 0.00 in0.0 mm 0.00 in0.0 mm
11:35 AM 73.0°F22.8°C 59.2°F15.1°C 62% 3.4 mph NW5.5 kmh NW 8.3 mph13.4 kmh 30.00 in1015.9 mb 0.00 in0.0 mm 0.00 in0.0 mm 0.00 in0.0 mm
11:40 AM 73.6°F23.1°C 61.1°F16.2°C 65% 3.0 mph WSW4.8 kmh WSW 6.9 mph11.1 kmh 30.00 in1015.9 mb 0.00 in0.0 mm 0.00 in0.0 mm 0.00 in0.0 mm
11:45 AM 74.8°F23.8°C 62.3°F16.8°C 65% 2.8 mph W4.5 kmh W 6.9 mph11.1 kmh 30.00 in1015.9 mb 0.00 in0.0 mm 0.00 in0.0 mm 0.00 in0.0 mm
11:50 AM 76.1°F24.5°C 61.2°F16.2°C 60% 2.9 mph WNW4.7 kmh WNW 6.0 mph9.7 kmh 30.00 in1015.9 mb 0.00 in0.0 mm 0.00 in0.0 mm 0.00 in0.0 mm
11:55 AM 75.9°F24.4°C 60.1°F15.6°C 58% 2.8 mph WNW4.5 kmh WNW 6.9 mph11.1 kmh 30.00 in1015.9 mb 0.00 in0.0 mm 0.00 in0.0 mm 0.00 in0.0 mm
12:00 PM 74.1°F23.4°C 59.3°F15.2°C 60% 2.9 mph WNW4.7 kmh WNW 7.6 mph12.2 kmh 30.00 in1015.9 mb 0.00 in0.0 mm 0.00 in0.0 mm 0.00 in0.0 mm
12:05 PM 73.0°F22.8°C 59.2°F15.1°C 62% 2.4 mph W3.9 kmh W 7.6 mph12.2 kmh 30.00 in1015.9 mb 0.00 in0.0 mm 0.00 in0.0 mm 0.00 in0.0 mm
12:10 PM 72.7°F22.6°C 59.4°F15.2°C 63% 2.0 mph NW3.2 kmh NW 6.9 mph11.1 kmh 30.00 in1015.9 mb 0.00 in0.0 mm 0.00 in0.0 mm 0.00 in0.0 mm
12:15 PM 72.7°F22.6°C 59.4°F15.2°C 63% 2.4 mph NNW3.9 kmh NNW 8.3 mph13.4 kmh 30.00 in1015.9 mb 0.00 in0.0 mm 0.00 in0.0 mm 0.00 in0.0 mm
12:20 PM 72.9°F22.7°C 60.4°F15.8°C 65% 4.5 mph NNE7.2 kmh NNE 13.6 mph21.9 kmh 30.01 in1016.3 mb 0.00 in0.0 mm 0.00 in0.0 mm 0.00 in0.0 mm
12:25 PM 73.4°F23.0°C 61.3°F16.3°C 66% 6.3 mph NNE10.1 kmh NNE 13.6 mph21.9 kmh 30.01 in1016.3 mb 0.00 in0.0 mm 0.00 in0.0 mm 0.00 in0.0 mm
12:30 PM 72.1°F22.3°C 59.3°F15.2°C 64% 4.3 mph N6.9 kmh N 11.4 mph18.3 kmh 30.01 in1016.3 mb 0.01 in0.3 mm 0.12 in3.0 mm 0.01 in0.3 mm
12:35 PM 70.5°F21.4°C 59.0°F15.0°C 67% 1.7 mph NNW2.7 kmh NNW 6.9 mph11.1 kmh 30.01 in1016.3 mb 0.01 in0.3 mm 0.00 in0.0 mm 0.01 in0.3 mm
12:40 PM 70.2°F21.2°C 60.7°F15.9°C 72% 1.2 mph NNE1.9 kmh NNE 5.4 mph8.7 kmh 30.01 in1016.3 mb 0.01 in0.3 mm 0.00 in0.0 mm 0.01 in0.3 mm
12:45 PM 70.7°F21.5°C 62.0°F16.7°C 74% 1.7 mph NE2.7 kmh NE 6.0 mph9.7 kmh 30.01 in1016.3 mb 0.01 in0.3 mm 0.00 in0.0 mm 0.01 in0.3 mm
12:50 PM 71.1°F21.7°C 62.7°F17.1°C 75% 2.8 mph NE4.5 kmh NE 8.3 mph13.4 kmh 30.02 in1016.6 mb 0.01 in0.3 mm 0.00 in0.0 mm 0.01 in0.3 mm
12:55 PM 72.5°F22.5°C 64.5°F18.1°C 76% 3.5 mph NNE5.6 kmh NNE 8.3 mph13.4 kmh 30.02 in1016.6 mb 0.01 in0.3 mm 0.00 in0.0 mm 0.01 in0.3 mm
01:00 PM 75.7°F24.3°C 67.2°F19.6°C 75% 2.6 mph NE4.2 kmh NE 8.3 mph13.4 kmh 30.02 in1016.6 mb 0.01 in0.3 mm 0.00 in0.0 mm 0.01 in0.3 mm
01:05 PM 76.6°F24.8°C 66.9°F19.4°C 72% 2.2 mph NNE3.5 kmh NNE 6.0 mph9.7 kmh 30.01 in1016.3 mb 0.01 in0.3 mm 0.00 in0.0 mm 0.01 in0.3 mm
01:10 PM 77.4°F25.2°C 66.0°F18.9°C 68% 2.1 mph NNE3.4 kmh NNE 6.0 mph9.7 kmh 30.01 in1016.3 mb 0.01 in0.3 mm 0.00 in0.0 mm 0.01 in0.3 mm
01:15 PM 78.6°F25.9°C 66.3°F19.1°C 66% 1.7 mph NE2.7 kmh NE 4.5 mph7.2 kmh 30.02 in1016.6 mb 0.01 in0.3 mm 0.00 in0.0 mm 0.01 in0.3 mm
01:20 PM 78.6°F25.9°C 65.4°F18.6°C 64% 2.1 mph NE3.4 kmh NE 6.0 mph9.7 kmh 30.02 in1016.6 mb 0.01 in0.3 mm 0.00 in0.0 mm 0.01 in0.3 mm
01:25 PM 77.2°F25.1°C 63.6°F17.6°C 63% 3.4 mph N5.5 kmh N 12.1 mph19.5 kmh 30.03 in1016.9 mb 0.01 in0.3 mm 0.00 in0.0 mm 0.01 in0.3 mm
01:30 PM 73.4°F23.0°C 61.3°F16.3°C 66% 3.6 mph N5.8 kmh N 12.1 mph19.5 kmh 30.03 in1016.9 mb 0.09 in2.3 mm 0.96 in24.4 mm 0.11 in2.8 mm
01:35 PM 71.6°F22.0°C 60.9°F16.1°C 69% 1.2 mph E1.9 kmh E 8.3 mph13.4 kmh 30.03 in1016.9 mb 0.14 in3.6 mm 0.60 in15.2 mm 0.15 in3.8 mm
01:40 PM 71.6°F22.0°C 60.9°F16.1°C 69% Calm Calm -- 30.02 in1016.6 mb 0.14 in3.6 mm 0.00 in0.0 mm 0.15 in3.8 mm
01:45 PM 69.4°F20.8°C 61.2°F16.2°C 75% Calm Calm 1.6 mph2.6 kmh 30.03 in1016.9 mb 0.15 in3.8 mm 0.12 in3.0 mm 0.17 in4.3 mm
01:50 PM 68.9°F20.5°C 61.4°F16.3°C 77% 0.3 mph NNE0.5 kmh NNE 1.6 mph2.6 kmh 30.02 in1016.6 mb 0.15 in3.8 mm 0.00 in0.0 mm 0.17 in4.3 mm
01:55 PM 68.7°F20.4°C 61.9°F16.6°C 79% 1.0 mph NNE1.6 kmh NNE 4.5 mph7.2 kmh 30.03 in1016.9 mb 0.15 in3.8 mm 0.00 in0.0 mm 0.17 in4.3 mm
02:00 PM 69.1°F20.6°C 63.0°F17.2°C 81% 1.8 mph NE2.9 kmh NE 4.5 mph7.2 kmh 30.02 in1016.6 mb 0.15 in3.8 mm 0.00 in0.0 mm 0.17 in4.3 mm
02:05 PM 69.4°F20.8°C 64.0°F17.8°C 83% 1.3 mph NE2.1 kmh NE 4.5 mph7.2 kmh 30.02 in1016.6 mb 0.15 in3.8 mm 0.00 in0.0 mm 0.17 in4.3 mm
02:10 PM 70.0°F21.1°C 64.2°F17.9°C 82% 1.0 mph NNE1.6 kmh NNE 3.1 mph5.0 kmh 30.02 in1016.6 mb 0.15 in3.8 mm 0.00 in0.0 mm 0.17 in4.3 mm
02:15 PM 70.2°F21.2°C 64.4°F18.0°C 82% 1.6 mph NE2.6 kmh NE 3.1 mph5.0 kmh 30.02 in1016.6 mb 0.15 in3.8 mm 0.00 in0.0 mm 0.17 in4.3 mm
02:20 PM 70.2°F21.2°C 64.4°F18.0°C 82% 1.6 mph ENE2.6 kmh ENE 3.8 mph6.1 kmh 30.02 in1016.6 mb 0.15 in3.8 mm 0.00 in0.0 mm 0.17 in4.3 mm
02:25 PM 70.5°F21.4°C 64.8°F18.2°C 82% 1.9 mph NE3.1 kmh NE 3.8 mph6.1 kmh 30.02 in1016.6 mb 0.15 in3.8 mm 0.00 in0.0 mm 0.17 in4.3 mm
02:30 PM 73.4°F23.0°C 68.3°F20.2°C 84% 1.7 mph NNE2.7 kmh NNE 4.5 mph7.2 kmh 30.02 in1016.6 mb 0.06 in1.5 mm 0.00 in0.0 mm 0.17 in4.3 mm
02:35 PM 76.3°F24.6°C 69.7°F20.9°C 80% 1.2 mph ENE1.9 kmh ENE 4.5 mph7.2 kmh 30.02 in1016.6 mb 0.01 in0.3 mm 0.00 in0.0 mm 0.17 in4.3 mm
02:40 PM 78.4°F25.8°C 70.2°F21.2°C 76% 1.6 mph ENE2.6 kmh ENE 4.5 mph7.2 kmh 30.02 in1016.6 mb 0.01 in0.3 mm 0.00 in0.0 mm 0.17 in4.3 mm
02:45 PM 79.9°F26.6°C 70.0°F21.1°C 72% 2.0 mph NE3.2 kmh NE 5.4 mph8.7 kmh 30.01 in1016.3 mb 0.00 in0.0 mm 0.00 in0.0 mm 0.17 in4.3 mm
02:50 PM 80.6°F27.0°C 68.2°F20.1°C 66% 2.6 mph NE4.2 kmh NE 6.9 mph11.1 kmh 30.02 in1016.6 mb 0.00 in0.0 mm 0.00 in0.0 mm 0.17 in4.3 mm
02:55 PM 77.9°F25.5°C 65.6°F18.7°C 66% 4.1 mph NE6.6 kmh NE 10.7 mph17.2 kmh 30.02 in1016.6 mb 0.00 in0.0 mm 0.00 in0.0 mm 0.17 in4.3 mm
03:00 PM 74.3°F23.5°C 63.9°F17.7°C 70% 4.6 mph N7.4 kmh N 10.7 mph17.2 kmh 30.02 in1016.6 mb 0.00 in0.0 mm 0.00 in0.0 mm 0.17 in4.3 mm
03:05 PM 72.3°F22.4°C 62.8°F17.1°C 72% 3.6 mph N5.8 kmh N 10.7 mph17.2 kmh 30.02 in1016.6 mb 0.01 in0.3 mm 0.12 in3.0 mm 0.18 in4.6 mm
03:10 PM 71.6°F22.0°C 62.1°F16.7°C 72% 2.5 mph N4.0 kmh N 6.0 mph9.7 kmh 30.03 in1016.9 mb 0.01 in0.3 mm 0.00 in0.0 mm 0.18 in4.6 mm
03:15 PM 71.6°F22.0°C 62.1°F16.7°C 72% 2.2 mph N3.5 kmh N 3.8 mph6.1 kmh 30.02 in1016.6 mb 0.01 in0.3 mm 0.00 in0.0 mm 0.18 in4.6 mm
03:20 PM 69.6°F20.9°C 60.2°F15.7°C 72% 2.6 mph N4.2 kmh N 8.3 mph13.4 kmh 30.03 in1016.9 mb 0.02 in0.5 mm 0.12 in3.0 mm 0.19 in4.8 mm
03:25 PM 70.2°F21.2°C 60.7°F15.9°C 72% 3.7 mph N6.0 kmh N 9.2 mph14.8 kmh 30.02 in1016.6 mb 0.02 in0.5 mm 0.00 in0.0 mm 0.19 in4.8 mm
03:30 PM 71.6°F22.0°C 62.1°F16.7°C 72% 3.3 mph N5.3 kmh N 9.2 mph14.8 kmh 30.02 in1016.6 mb 0.02 in0.5 mm 0.00 in0.0 mm 0.19 in4.8 mm
03:35 PM 73.4°F23.0°C 63.8°F17.7°C 72% 2.6 mph N4.2 kmh N 6.9 mph11.1 kmh 30.02 in1016.6 mb 0.02 in0.5 mm 0.00 in0.0 mm 0.19 in4.8 mm
03:40 PM 73.8°F23.2°C 64.2°F17.9°C 72% 3.4 mph N5.5 kmh N 6.9 mph11.1 kmh 30.02 in1016.6 mb 0.02 in0.5 mm 0.00 in0.0 mm 0.19 in4.8 mm
03:45 PM 73.6°F23.1°C 66.7°F19.3°C 79% 3.0 mph N4.8 kmh N 6.9 mph11.1 kmh 30.02 in1016.6 mb 0.02 in0.5 mm 0.00 in0.0 mm 0.19 in4.8 mm
03:50 PM 73.2°F22.9°C 65.9°F18.8°C 78% 2.4 mph N3.9 kmh N 6.0 mph9.7 kmh 30.02 in1016.6 mb 0.02 in0.5 mm 0.00 in0.0 mm 0.19 in4.8 mm
03:55 PM 72.0°F22.2°C 64.4°F18.0°C 77% 3.4 mph N5.5 kmh N 8.3 mph13.4 kmh 30.02 in1016.6 mb 0.02 in0.5 mm 0.00 in0.0 mm 0.19 in4.8 mm
04:00 PM 70.5°F21.4°C 63.3°F17.4°C 78% 3.9 mph NNE6.3 kmh NNE 8.3 mph13.4 kmh 30.02 in1016.6 mb 0.02 in0.5 mm 0.00 in0.0 mm 0.19 in4.8 mm
04:05 PM 69.8°F21.0°C 63.0°F17.2°C 79% 2.9 mph NNE4.7 kmh NNE 7.6 mph12.2 kmh 30.02 in1016.6 mb 0.01 in0.3 mm 0.00 in0.0 mm 0.19 in4.8 mm
04:10 PM 69.1°F20.6°C 63.0°F17.2°C 81% 2.7 mph ENE4.3 kmh ENE 5.4 mph8.7 kmh 30.02 in1016.6 mb 0.01 in0.3 mm 0.00 in0.0 mm 0.19 in4.8 mm
04:15 PM 68.5°F20.3°C 62.8°F17.1°C 82% 2.6 mph ENE4.2 kmh ENE 5.4 mph8.7 kmh 30.02 in1016.6 mb 0.01 in0.3 mm 0.00 in0.0 mm 0.19 in4.8 mm
04:20 PM 68.0°F20.0°C 62.6°F17.0°C 83% 2.1 mph NNE3.4 kmh NNE 6.9 mph11.1 kmh 30.02 in1016.6 mb 0.00 in0.0 mm 0.00 in0.0 mm 0.19 in4.8 mm
04:25 PM 67.6°F19.8°C 62.6°F17.0°C 84% 2.5 mph N4.0 kmh N 6.9 mph11.1 kmh 30.02 in1016.6 mb 0.00 in0.0 mm 0.00 in0.0 mm 0.19 in4.8 mm
04:30 PM 67.3°F19.6°C 62.6°F17.0°C 85% 2.0 mph NE3.2 kmh NE 5.4 mph8.7 kmh 30.02 in1016.6 mb 0.00 in0.0 mm 0.00 in0.0 mm 0.19 in4.8 mm
04:35 PM 66.9°F19.4°C 62.3°F16.8°C 85% 1.8 mph E2.9 kmh E 4.5 mph7.2 kmh 30.03 in1016.9 mb 0.00 in0.0 mm 0.00 in0.0 mm 0.19 in4.8 mm
04:40 PM 66.6°F19.2°C 61.9°F16.6°C 85% 2.8 mph ESE4.5 kmh ESE 6.9 mph11.1 kmh 30.02 in1016.6 mb 0.00 in0.0 mm 0.00 in0.0 mm 0.19 in4.8 mm
04:45 PM 66.2°F19.0°C 61.6°F16.4°C 85% 3.9 mph SE6.3 kmh SE 8.3 mph13.4 kmh 30.02 in1016.6 mb 0.00 in0.0 mm 0.00 in0.0 mm 0.19 in4.8 mm
04:50 PM 66.0°F18.9°C 61.7°F16.5°C 86% 4.1 mph ENE6.6 kmh ENE 8.3 mph13.4 kmh 30.02 in1016.6 mb 0.00 in0.0 mm 0.00 in0.0 mm 0.19 in4.8 mm
04:55 PM 65.8°F18.8°C 61.5°F16.4°C 86% 4.0 mph NE6.4 kmh NE 8.3 mph13.4 kmh 30.03 in1016.9 mb 0.00 in0.0 mm 0.00 in0.0 mm 0.19 in4.8 mm
05:00 PM 65.5°F18.6°C 61.5°F16.4°C 87% 3.5 mph E5.6 kmh E 8.3 mph13.4 kmh 30.02 in1016.6 mb 0.00 in0.0 mm 0.00 in0.0 mm 0.19 in4.8 mm
05:05 PM 65.3°F18.5°C 61.3°F16.3°C 87% 3.2 mph E5.1 kmh E 7.6 mph12.2 kmh 30.03 in1016.9 mb 0.00 in0.0 mm 0.00 in0.0 mm 0.19 in4.8 mm
05:10 PM 65.3°F18.5°C 61.3°F16.3°C 87% 2.7 mph SE4.3 kmh SE 6.0 mph9.7 kmh 30.03 in1016.9 mb 0.00 in0.0 mm 0.00 in0.0 mm 0.19 in4.8 mm
05:15 PM 65.1°F18.4°C 61.2°F16.2°C 87% 2.4 mph ESE3.9 kmh ESE 6.0 mph9.7 kmh 30.03 in1016.9 mb 0.00 in0.0 mm 0.00 in0.0 mm 0.19 in4.8 mm
05:20 PM 64.9°F18.3°C 61.3°F16.3°C 88% 3.4 mph E5.5 kmh E 9.8 mph15.8 kmh 30.03 in1016.9 mb 0.00 in0.0 mm 0.00 in0.0 mm 0.19 in4.8 mm
05:25 PM 65.1°F18.4°C 61.5°F16.4°C 88% 3.8 mph NE6.1 kmh NE 9.8 mph15.8 kmh 30.03 in1016.9 mb 0.00 in0.0 mm 0.00 in0.0 mm 0.19 in4.8 mm
05:30 PM 65.3°F18.5°C 61.7°F16.5°C 88% 3.4 mph NNE5.5 kmh NNE 8.3 mph13.4 kmh 30.03 in1016.9 mb 0.00 in0.0 mm 0.00 in0.0 mm 0.19 in4.8 mm
05:35 PM 65.3°F18.5°C 61.7°F16.5°C 88% 3.7 mph NNW6.0 kmh NNW 7.6 mph12.2 kmh 30.04 in1017.3 mb 0.00 in0.0 mm 0.00 in0.0 mm 0.19 in4.8 mm
05:40 PM 65.5°F18.6°C 61.8°F16.6°C 88% 4.2 mph NNW6.8 kmh NNW 8.3 mph13.4 kmh 30.03 in1016.9 mb 0.00 in0.0 mm 0.00 in0.0 mm 0.19 in4.8 mm
05:45 PM 65.8°F18.8°C 62.2°F16.8°C 88% 4.4 mph N7.1 kmh N 9.8 mph15.8 kmh 30.03 in1016.9 mb 0.00 in0.0 mm 0.00 in0.0 mm 0.19 in4.8 mm
05:50 PM 66.4°F19.1°C 62.4°F16.9°C 87% 4.7 mph N7.6 kmh N 10.7 mph17.2 kmh 30.03 in1016.9 mb 0.00 in0.0 mm 0.00 in0.0 mm 0.19 in4.8 mm
05:55 PM 66.4°F19.1°C 62.4°F16.9°C 87% 6.0 mph N9.7 kmh N 13.0 mph20.9 kmh 30.04 in1017.3 mb 0.00 in0.0 mm 0.00 in0.0 mm 0.19 in4.8 mm
06:00 PM 66.4°F19.1°C 62.1°F16.7°C 86% 6.1 mph NW9.8 kmh NW 13.0 mph20.9 kmh 30.03 in1016.9 mb 0.00 in0.0 mm 0.00 in0.0 mm 0.19 in4.8 mm
06:05 PM 66.4°F19.1°C 61.7°F16.5°C 85% 5.3 mph SW8.5 kmh SW 12.1 mph19.5 kmh 30.04 in1017.3 mb 0.00 in0.0 mm 0.00 in0.0 mm 0.19 in4.8 mm
06:10 PM 66.0°F18.9°C 61.7°F16.5°C 86% 4.8 mph SW7.7 kmh SW 12.1 mph19.5 kmh 30.04 in1017.3 mb 0.00 in0.0 mm 0.00 in0.0 mm 0.19 in4.8 mm
06:15 PM 65.8°F18.8°C 61.2°F16.2°C 85% 4.1 mph WSW6.6 kmh WSW 9.2 mph14.8 kmh 30.04 in1017.3 mb 0.00 in0.0 mm 0.00 in0.0 mm 0.19 in4.8 mm
06:20 PM 65.7°F18.7°C 61.0°F16.1°C 85% 3.7 mph WNW6.0 kmh WNW 7.6 mph12.2 kmh 30.04 in1017.3 mb 0.00 in0.0 mm 0.00 in0.0 mm 0.19 in4.8 mm
06:25 PM 65.7°F18.7°C 61.0°F16.1°C 85% 3.5 mph ENE5.6 kmh ENE 6.9 mph11.1 kmh 30.04 in1017.3 mb 0.00 in0.0 mm 0.00 in0.0 mm 0.19 in4.8 mm
06:30 PM 65.3°F18.5°C 60.7°F15.9°C 85% 3.7 mph NNE6.0 kmh NNE 8.3 mph13.4 kmh 30.04 in1017.3 mb 0.00 in0.0 mm 0.00 in0.0 mm 0.19 in4.8 mm
06:35 PM 65.3°F18.5°C 60.7°F15.9°C 85% 3.6 mph NNE5.8 kmh NNE 8.3 mph13.4 kmh 30.04 in1017.3 mb 0.00 in0.0 mm 0.00 in0.0 mm 0.19 in4.8 mm
06:40 PM 65.3°F18.5°C 60.7°F15.9°C 85% 3.4 mph ENE5.5 kmh ENE 6.0 mph9.7 kmh 30.04 in1017.3 mb 0.00 in0.0 mm 0.00 in0.0 mm 0.19 in4.8 mm
06:45 PM 65.3°F18.5°C 60.7°F15.9°C 85% 3.4 mph N5.5 kmh N 7.6 mph12.2 kmh 30.04 in1017.3 mb 0.00 in0.0 mm 0.00 in0.0 mm 0.19 in4.8 mm
06:50 PM 65.1°F18.4°C 60.5°F15.8°C 85% 3.4 mph N5.5 kmh N 7.6 mph12.2 kmh 30.04 in1017.3 mb 0.00 in0.0 mm 0.00 in0.0 mm 0.19 in4.8 mm
06:55 PM 64.9°F18.3°C 60.3°F15.7°C 85% 3.1 mph N5.0 kmh N 6.9 mph11.1 kmh 30.04 in1017.3 mb 0.00 in0.0 mm 0.00 in0.0 mm 0.19 in4.8 mm
07:00 PM 64.8°F18.2°C 60.1°F15.6°C 85% 3.0 mph WSW4.8 kmh WSW 7.6 mph12.2 kmh 30.04 in1017.3 mb 0.00 in0.0 mm 0.00 in0.0 mm 0.19 in4.8 mm
07:05 PM 64.6°F18.1°C 60.0°F15.6°C 85% 3.0 mph NW4.8 kmh NW 7.6 mph12.2 kmh 30.04 in1017.3 mb 0.00 in0.0 mm 0.00 in0.0 mm 0.19 in4.8 mm
07:10 PM 64.2°F17.9°C 59.3°F15.2°C 84% 2.7 mph NNW4.3 kmh NNW 8.3 mph13.4 kmh 30.05 in1017.6 mb 0.00 in0.0 mm 0.00 in0.0 mm 0.19 in4.8 mm
07:15 PM 63.9°F17.7°C 58.9°F14.9°C 84% 3.6 mph NW5.8 kmh NW 8.3 mph13.4 kmh 30.05 in1017.6 mb 0.00 in0.0 mm 0.00 in0.0 mm 0.19 in4.8 mm
07:20 PM 63.5°F17.5°C 58.6°F14.8°C 84% 4.0 mph NNW6.4 kmh NNW 8.3 mph13.4 kmh 30.05 in1017.6 mb 0.00 in0.0 mm 0.00 in0.0 mm 0.19 in4.8 mm
07:25 PM 63.1°F17.3°C 58.6°F14.8°C 85% 3.9 mph N6.3 kmh N 8.3 mph13.4 kmh 30.05 in1017.6 mb 0.00 in0.0 mm 0.00 in0.0 mm 0.19 in4.8 mm
07:30 PM 63.0°F17.2°C 58.4°F14.7°C 85% 4.0 mph N6.4 kmh N 8.3 mph13.4 kmh 30.05 in1017.6 mb 0.00 in0.0 mm 0.00 in0.0 mm 0.19 in4.8 mm
07:35 PM 62.8°F17.1°C 58.2°F14.6°C 85% 3.8 mph N6.1 kmh N 8.3 mph13.4 kmh 30.06 in1017.9 mb 0.00 in0.0 mm 0.00 in0.0 mm 0.19 in4.8 mm
07:40 PM 62.6°F17.0°C 58.0°F14.4°C 85% 3.7 mph N6.0 kmh N 6.9 mph11.1 kmh 30.05 in1017.6 mb 0.00 in0.0 mm 0.00 in0.0 mm 0.19 in4.8 mm
07:45 PM 62.2°F16.8°C 58.0°F14.4°C 86% 3.8 mph N6.1 kmh N 6.9 mph11.1 kmh 30.06 in1017.9 mb 0.00 in0.0 mm 0.00 in0.0 mm 0.19 in4.8 mm
07:50 PM 62.1°F16.7°C 57.8°F14.3°C 86% 3.6 mph N5.8 kmh N 6.0 mph9.7 kmh 30.06 in1017.9 mb 0.00 in0.0 mm 0.00 in0.0 mm 0.19 in4.8 mm
07:55 PM 61.7°F16.5°C 57.8°F14.3°C 87% 3.5 mph N5.6 kmh N 5.4 mph8.7 kmh 30.06 in1017.9 mb 0.00 in0.0 mm 0.00 in0.0 mm 0.19 in4.8 mm
08:00 PM 61.5°F16.4°C 57.6°F14.2°C 87% 3.4 mph N5.5 kmh N 5.4 mph8.7 kmh 30.06 in1017.9 mb 0.00 in0.0 mm 0.00 in0.0 mm 0.19 in4.8 mm
08:05 PM 61.3°F16.3°C 57.4°F14.1°C 87% 3.3 mph NNW5.3 kmh NNW 6.0 mph9.7 kmh 30.07 in1018.3 mb 0.00 in0.0 mm 0.00 in0.0 mm 0.19 in4.8 mm
08:10 PM 61.2°F16.2°C 57.3°F14.1°C 87% 3.9 mph N6.3 kmh N 7.6 mph12.2 kmh 30.06 in1017.9 mb 0.00 in0.0 mm 0.00 in0.0 mm 0.19 in4.8 mm
08:15 PM 61.2°F16.2°C 57.3°F14.1°C 87% 4.1 mph N6.6 kmh N 7.6 mph12.2 kmh 30.06 in1017.9 mb 0.00 in0.0 mm 0.00 in0.0 mm 0.19 in4.8 mm
08:20 PM 61.2°F16.2°C 57.6°F14.2°C 88% 3.5 mph N5.6 kmh N 6.9 mph11.1 kmh 30.07 in1018.3 mb 0.00 in0.0 mm 0.00 in0.0 mm 0.19 in4.8 mm
08:25 PM 61.0°F16.1°C 57.4°F14.1°C 88% 3.0 mph N4.8 kmh N 6.9 mph11.1 kmh 30.07 in1018.3 mb 0.00 in0.0 mm 0.00 in0.0 mm 0.19 in4.8 mm
08:30 PM 60.8°F16.0°C 57.2°F14.0°C 88% 2.6 mph N4.2 kmh N 5.4 mph8.7 kmh 30.07 in1018.3 mb 0.00 in0.0 mm 0.00 in0.0 mm 0.19 in4.8 mm
08:35 PM 60.8°F16.0°C 57.2°F14.0°C 88% 2.0 mph N3.2 kmh N 5.4 mph8.7 kmh 30.07 in1018.3 mb 0.00 in0.0 mm 0.00 in0.0 mm 0.19 in4.8 mm
08:40 PM 60.6°F15.9°C 57.4°F14.1°C 89% 1.5 mph N2.4 kmh N 3.8 mph6.1 kmh 30.07 in1018.3 mb 0.00 in0.0 mm 0.00 in0.0 mm 0.19 in4.8 mm
08:45 PM 60.3°F15.7°C 57.0°F13.9°C 89% 1.0 mph N1.6 kmh N 3.1 mph5.0 kmh 30.07 in1018.3 mb 0.00 in0.0 mm 0.00 in0.0 mm 0.19 in4.8 mm
08:50 PM 60.1°F15.6°C 56.8°F13.8°C 89% 0.8 mph N1.3 kmh N 3.1 mph5.0 kmh 30.07 in1018.3 mb 0.00 in0.0 mm 0.00 in0.0 mm 0.19 in4.8 mm
08:55 PM 59.9°F15.5°C 56.6°F13.7°C 89% 1.0 mph N1.6 kmh N 3.1 mph5.0 kmh 30.07 in1018.3 mb 0.00 in0.0 mm 0.00 in0.0 mm 0.19 in4.8 mm
09:00 PM 59.5°F15.3°C 56.6°F13.7°C 90% 1.1 mph N1.8 kmh N 3.8 mph6.1 kmh 30.07 in1018.3 mb 0.00 in0.0 mm 0.00 in0.0 mm 0.19 in4.8 mm
09:05 PM 59.5°F15.3°C 56.6°F13.7°C 90% 0.6 mph N1.0 kmh N 3.1 mph5.0 kmh 30.07 in1018.3 mb 0.00 in0.0 mm 0.00 in0.0 mm 0.19 in4.8 mm
09:10 PM 59.4°F15.2°C 56.4°F13.6°C 90% 0.6 mph N1.0 kmh N 3.1 mph5.0 kmh 30.07 in1018.3 mb 0.00 in0.0 mm 0.00 in0.0 mm 0.19 in4.8 mm
09:15 PM 59.0°F15.0°C 56.1°F13.4°C 90% 0.3 mph N0.5 kmh N 2.2 mph3.5 kmh 30.07 in1018.3 mb 0.00 in0.0 mm 0.00 in0.0 mm 0.19 in4.8 mm
09:20 PM 59.2°F15.1°C 56.2°F13.4°C 90% Calm Calm 0.7 mph1.1 kmh 30.07 in1018.3 mb 0.00 in0.0 mm 0.00 in0.0 mm 0.19 in4.8 mm
09:25 PM 59.4°F15.2°C 56.7°F13.7°C 91% Calm Calm 0.7 mph1.1 kmh 30.07 in1018.3 mb 0.00 in0.0 mm 0.00 in0.0 mm 0.19 in4.8 mm
09:30 PM 59.5°F15.3°C 56.9°F13.8°C 91% Calm Calm 0.7 mph1.1 kmh 30.07 in1018.3 mb 0.00 in0.0 mm 0.00 in0.0 mm 0.19 in4.8 mm
09:35 PM 59.5°F15.3°C 56.9°F13.8°C 91% 0.1 mph N0.2 kmh N 1.6 mph2.6 kmh 30.08 in1018.6 mb 0.00 in0.0 mm 0.00 in0.0 mm 0.19 in4.8 mm
09:40 PM 59.4°F15.2°C 56.7°F13.7°C 91% 0.1 mph N0.2 kmh N 1.6 mph2.6 kmh 30.07 in1018.3 mb 0.00 in0.0 mm 0.00 in0.0 mm 0.19 in4.8 mm
09:45 PM 59.4°F15.2°C 56.7°F13.7°C 91% 0.1 mph N0.2 kmh N 2.2 mph3.5 kmh 30.07 in1018.3 mb 0.00 in0.0 mm 0.00 in0.0 mm 0.19 in4.8 mm
09:50 PM 59.4°F15.2°C 56.7°F13.7°C 91% 0.1 mph N0.2 kmh N 2.2 mph3.5 kmh 30.07 in1018.3 mb 0.00 in0.0 mm 0.00 in0.0 mm 0.19 in4.8 mm
09:55 PM 59.2°F15.1°C 56.9°F13.8°C 92% 0.1 mph N0.2 kmh N 2.2 mph3.5 kmh 30.08 in1018.6 mb 0.00 in0.0 mm 0.00 in0.0 mm 0.19 in4.8 mm
10:00 PM 59.0°F15.0°C 56.7°F13.7°C 92% 0.1 mph N0.2 kmh N 1.6 mph2.6 kmh 30.08 in1018.6 mb 0.00 in0.0 mm 0.00 in0.0 mm 0.19 in4.8 mm
10:05 PM 59.0°F15.0°C 56.7°F13.7°C 92% 0.1 mph N0.2 kmh N 1.6 mph2.6 kmh 30.08 in1018.6 mb 0.00 in0.0 mm 0.00 in0.0 mm 0.19 in4.8 mm
10:10 PM 59.2°F15.1°C 56.9°F13.8°C 92% 0.2 mph NNW0.3 kmh NNW 3.8 mph6.1 kmh 30.08 in1018.6 mb 0.00 in0.0 mm 0.00 in0.0 mm 0.19 in4.8 mm
10:15 PM 59.2°F15.1°C 56.9°F13.8°C 92% 0.3 mph NNW0.5 kmh NNW 3.8 mph6.1 kmh 30.08 in1018.6 mb 0.00 in0.0 mm 0.00 in0.0 mm 0.19 in4.8 mm
10:20 PM 59.2°F15.1°C 56.9°F13.8°C 92% 0.2 mph N0.3 kmh N 2.2 mph3.5 kmh 30.08 in1018.6 mb 0.00 in0.0 mm 0.00 in0.0 mm 0.19 in4.8 mm
10:25 PM 59.2°F15.1°C 56.9°F13.8°C 92% 0.3 mph N0.5 kmh N 2.2 mph3.5 kmh 30.08 in1018.6 mb 0.00 in0.0 mm 0.00 in0.0 mm 0.19 in4.8 mm
10:30 PM 59.2°F15.1°C 57.2°F14.0°C 93% 0.5 mph N0.8 kmh N 2.2 mph3.5 kmh 30.08 in1018.6 mb 0.00 in0.0 mm 0.00 in0.0 mm 0.19 in4.8 mm
10:35 PM 59.2°F15.1°C 57.2°F14.0°C 93% 0.7 mph NNW1.1 kmh NNW 3.8 mph6.1 kmh 30.08 in1018.6 mb 0.00 in0.0 mm 0.00 in0.0 mm 0.19 in4.8 mm
10:40 PM 59.0°F15.0°C 57.0°F13.9°C 93% 0.6 mph NW1.0 kmh NW 3.8 mph6.1 kmh 30.08 in1018.6 mb 0.00 in0.0 mm 0.00 in0.0 mm 0.19 in4.8 mm
10:45 PM 59.0°F15.0°C 57.0°F13.9°C 93% 0.4 mph NNE0.6 kmh NNE 2.2 mph3.5 kmh 30.08 in1018.6 mb 0.00 in0.0 mm 0.00 in0.0 mm 0.19 in4.8 mm
10:50 PM 59.0°F15.0°C 57.0°F13.9°C 93% 0.3 mph N0.5 kmh N 2.2 mph3.5 kmh 30.08 in1018.6 mb 0.00 in0.0 mm 0.00 in0.0 mm 0.19 in4.8 mm
10:55 PM 59.0°F15.0°C 57.0°F13.9°C 93% 0.3 mph N0.5 kmh N 2.2 mph3.5 kmh 30.08 in1018.6 mb 0.00 in0.0 mm 0.00 in0.0 mm 0.19 in4.8 mm
11:00 PM 59.0°F15.0°C 57.0°F13.9°C 93% 0.6 mph N1.0 kmh N 3.1 mph5.0 kmh 30.08 in1018.6 mb 0.00 in0.0 mm 0.00 in0.0 mm 0.17 in4.3 mm
11:05 PM 59.0°F15.0°C 57.0°F13.9°C 93% 0.7 mph N1.1 kmh N 3.1 mph5.0 kmh 30.08 in1018.6 mb 0.00 in0.0 mm 0.00 in0.0 mm 0.17 in4.3 mm
11:10 PM 59.0°F15.0°C 57.0°F13.9°C 93% 0.6 mph N1.0 kmh N 3.1 mph5.0 kmh 30.08 in1018.6 mb 0.00 in0.0 mm 0.00 in0.0 mm 0.17 in4.3 mm
11:15 PM 59.0°F15.0°C 57.0°F13.9°C 93% 0.7 mph NNE1.1 kmh NNE 3.1 mph5.0 kmh 30.08 in1018.6 mb 0.00 in0.0 mm 0.00 in0.0 mm 0.17 in4.3 mm
11:20 PM 59.0°F15.0°C 57.0°F13.9°C 93% 0.4 mph NE0.6 kmh NE 2.2 mph3.5 kmh 30.08 in1018.6 mb 0.00 in0.0 mm 0.00 in0.0 mm 0.17 in4.3 mm
11:25 PM 58.8°F14.9°C 57.1°F13.9°C 94% 0.5 mph N0.8 kmh N 2.2 mph3.5 kmh 30.08 in1018.6 mb 0.00 in0.0 mm 0.00 in0.0 mm 0.17 in4.3 mm
11:30 PM 58.8°F14.9°C 57.1°F13.9°C 94% 0.8 mph N1.3 kmh N 3.1 mph5.0 kmh 30.08 in1018.6 mb 0.00 in0.0 mm 0.00 in0.0 mm 0.17 in4.3 mm
11:35 PM 58.6°F14.8°C 56.9°F13.8°C 94% 0.7 mph N1.1 kmh N 3.1 mph5.0 kmh 30.08 in1018.6 mb 0.00 in0.0 mm 0.00 in0.0 mm 0.17 in4.3 mm
11:40 PM 58.6°F14.8°C 56.9°F13.8°C 94% 0.7 mph N1.1 kmh N 3.1 mph5.0 kmh 30.08 in1018.6 mb 0.00 in0.0 mm 0.00 in0.0 mm 0.17 in4.3 mm
11:45 PM 58.6°F14.8°C 56.9°F13.8°C 94% 0.6 mph N1.0 kmh N 3.1 mph5.0 kmh 30.07 in1018.3 mb 0.00 in0.0 mm 0.00 in0.0 mm 0.17 in4.3 mm
11:50 PM 58.6°F14.8°C 56.9°F13.8°C 94% 0.3 mph N0.5 kmh N 1.6 mph2.6 kmh 30.07 in1018.3 mb 0.00 in0.0 mm 0.00 in0.0 mm 0.17 in4.3 mm
11:55 PM 58.5°F14.7°C 56.7°F13.7°C 94% 0.3 mph N0.5 kmh N 1.6 mph2.6 kmh 30.07 in1018.3 mb 0.00 in0.0 mm 0.00 in0.0 mm 0.17 in4.3 mm